Portada
METAR-TAF:

METAR-TAF

Aeroports :

Kulob, Tadjikistan

latitud: 37-59-18N, longitud: 069-48-18E, altitud: 699 m

Observació

L'informe es va fer fa 37 minuts, a les 15:30 UTC
Vent 12 kt del Nord/Nord-Est
Temperatura 11°C
Humitat 37%
Pressió 1018 hPa
Visibilitat 10 km o més

METAR: UTDK 201530Z 03006MPS 9999 NSC 11/M03 Q1018 R01/09//70 RMK QFE706/0942

Hora: 21:07 (16:07 UTC)

Pronòstic

L'informe es va fer fa 1 hora i 7 minuts, a les 15:00 UTC
Pronòstic vàlid del 20 a les 16 UTC al 21 a les 01 UTC
Vent 10 kt del Nord/Nord-Est
Visibilitat: 6000 m
Escasses núvols a una alçada de 6600 ft
Núvols disperses a una alçada de 10000 ft
Temporalment
l' 20 a les 16 UTC al 20 a les 22 UTC
Vent 14 kt del Nord
Temporalment
l' 20 a les 22 UTC al 21 a les 01 UTC
Vent 4 kt amb direcció variable
Visibilitat: 3500 m
boirina, fum

TAF: UTDK 201500Z 2016/2101 03005MPS 6000 FEW066 SCT100 TEMPO 2016/2022 01007MPS TEMPO 2022/2101 VRB02MPS 3500 BR FU

Observacions i pronòstics meteorològics de més de 4000 aeroports (METAR i TAF).

Les estacions disponibles són els punts grocs i vermells al mapa.

Posi el ratolí al punt desitjat per veure el nom de l'estació.

Feu clic per veure les observacions i els pronòstics meteorològics.

Per canviar el mapa: feu clic els botons verds amb una creu de color negre per apropar; al botó verd amb un guió per allunyar la imatge; o en les fletxes verdes per a mapes adjacents.


METAR-TAF: